sensor_id;sensor_type;location;lat;lon;timestamp;temperature;humidity
9215;DHT22;4642;51.364;6.788;2023-04-24T00:02:07;11.30;1.00
9215;DHT22;4642;51.364;6.788;2023-04-24T00:04:36;11.30;99.90
9215;DHT22;4642;51.364;6.788;2023-04-24T00:07:06;11.30;1.00
9215;DHT22;4642;51.364;6.788;2023-04-24T00:09:32;11.30;1.00
9215;DHT22;4642;51.364;6.788;2023-04-24T00:11:57;11.30;1.00
9215;DHT22;4642;51.364;6.788;2023-04-24T00:14:23;11.30;1.00
9215;DHT22;4642;51.364;6.788;2023-04-24T00:16:49;11.30;1.00
9215;DHT22;4642;51.364;6.788;2023-04-24T00:19:14;11.20;1.00
9215;DHT22;4642;51.364;6.788;2023-04-24T00:21:40;11.20;1.00
9215;DHT22;4642;51.364;6.788;2023-04-24T00:24:06;11.20;1.00
9215;DHT22;4642;51.364;6.788;2023-04-24T00:26:34;11.20;1.00
9215;DHT22;4642;51.364;6.788;2023-04-24T00:29:00;11.10;1.00
9215;DHT22;4642;51.364;6.788;2023-04-24T00:31:25;11.10;1.00
9215;DHT22;4642;51.364;6.788;2023-04-24T00:33:51;11.10;1.00
9215;DHT22;4642;51.364;6.788;2023-04-24T00:36:16;11.10;1.00
9215;DHT22;4642;51.364;6.788;2023-04-24T00:38:44;11.00;1.00
9215;DHT22;4642;51.364;6.788;2023-04-24T00:41:10;11.00;1.00
9215;DHT22;4642;51.364;6.788;2023-04-24T00:43:35;11.00;1.00
9215;DHT22;4642;51.364;6.788;2023-04-24T00:46:01;10.90;1.00
9215;DHT22;4642;51.364;6.788;2023-04-24T00:48:27;10.90;1.00
9215;DHT22;4642;51.364;6.788;2023-04-24T00:50:53;10.90;1.00
9215;DHT22;4642;51.364;6.788;2023-04-24T00:53:19;10.80;22.70
9215;DHT22;4642;51.364;6.788;2023-04-24T00:55:44;10.80;24.20
9215;DHT22;4642;51.364;6.788;2023-04-24T00:58:10;10.70;17.80
9215;DHT22;4642;51.364;6.788;2023-04-24T01:00:36;10.70;54.20
9215;DHT22;4642;51.364;6.788;2023-04-24T01:03:04;10.70;1.00
9215;DHT22;4642;51.364;6.788;2023-04-24T01:05:30;10.60;1.00
9215;DHT22;4642;51.364;6.788;2023-04-24T01:07:56;10.60;1.00
9215;DHT22;4642;51.364;6.788;2023-04-24T01:10:22;10.60;1.00
9215;DHT22;4642;51.364;6.788;2023-04-24T01:12:50;10.50;1.00
9215;DHT22;4642;51.364;6.788;2023-04-24T01:15:15;10.40;1.00
9215;DHT22;4642;51.364;6.788;2023-04-24T01:17:41;10.40;1.00
9215;DHT22;4642;51.364;6.788;2023-04-24T01:20:07;10.40;24.60
9215;DHT22;4642;51.364;6.788;2023-04-24T01:22:34;10.30;65.70
9215;DHT22;4642;51.364;6.788;2023-04-24T01:25:00;10.20;90.00
9215;DHT22;4642;51.364;6.788;2023-04-24T01:27:25;10.30;99.90
9215;DHT22;4642;51.364;6.788;2023-04-24T01:29:51;10.20;99.90
9215;DHT22;4642;51.364;6.788;2023-04-24T01:32:17;10.20;99.90
9215;DHT22;4642;51.364;6.788;2023-04-24T01:34:44;10.10;99.90
9215;DHT22;4642;51.364;6.788;2023-04-24T01:37:10;10.10;99.90
9215;DHT22;4642;51.364;6.788;2023-04-24T01:39:36;10.10;99.90
9215;DHT22;4642;51.364;6.788;2023-04-24T01:42:01;10.10;99.90
9215;DHT22;4642;51.364;6.788;2023-04-24T01:44:30;10.00;99.90
9215;DHT22;4642;51.364;6.788;2023-04-24T01:46:56;10.00;99.90
9215;DHT22;4642;51.364;6.788;2023-04-24T01:49:22;10.00;99.90
9215;DHT22;4642;51.364;6.788;2023-04-24T01:51:48;10.00;99.90
9215;DHT22;4642;51.364;6.788;2023-04-24T01:54:13;10.00;99.90
9215;DHT22;4642;51.364;6.788;2023-04-24T01:56:43;9.90;99.90
9215;DHT22;4642;51.364;6.788;2023-04-24T01:59:12;9.90;99.90
9215;DHT22;4642;51.364;6.788;2023-04-24T02:01:38;9.90;99.90
9215;DHT22;4642;51.364;6.788;2023-04-24T02:04:05;9.90;99.90
9215;DHT22;4642;51.364;6.788;2023-04-24T02:06:31;9.90;99.90
9215;DHT22;4642;51.364;6.788;2023-04-24T02:08:57;9.90;99.90
9215;DHT22;4642;51.364;6.788;2023-04-24T02:11:23;9.90;99.90
9215;DHT22;4642;51.364;6.788;2023-04-24T02:13:49;9.90;99.90
9215;DHT22;4642;51.364;6.788;2023-04-24T02:16:15;9.90;99.90
9215;DHT22;4642;51.364;6.788;2023-04-24T02:18:41;9.90;99.90
9215;DHT22;4642;51.364;6.788;2023-04-24T02:21:06;9.90;99.90
9215;DHT22;4642;51.364;6.788;2023-04-24T02:23:32;9.80;99.90
9215;DHT22;4642;51.364;6.788;2023-04-24T02:25:57;9.80;99.90
9215;DHT22;4642;51.364;6.788;2023-04-24T02:28:23;9.80;99.90
9215;DHT22;4642;51.364;6.788;2023-04-24T02:30:48;9.80;99.90
9215;DHT22;4642;51.364;6.788;2023-04-24T02:33:15;9.80;99.90
9215;DHT22;4642;51.364;6.788;2023-04-24T02:35:40;9.80;99.90
9215;DHT22;4642;51.364;6.788;2023-04-24T02:38:06;9.80;99.90
9215;DHT22;4642;51.364;6.788;2023-04-24T02:40:31;9.80;99.90
9215;DHT22;4642;51.364;6.788;2023-04-24T02:42:57;9.80;99.90
9215;DHT22;4642;51.364;6.788;2023-04-24T02:45:22;9.80;99.90
9215;DHT22;4642;51.364;6.788;2023-04-24T02:47:48;9.80;99.90
9215;DHT22;4642;51.364;6.788;2023-04-24T02:50:13;9.80;99.90
9215;DHT22;4642;51.364;6.788;2023-04-24T02:52:39;9.80;99.90
9215;DHT22;4642;51.364;6.788;2023-04-24T02:55:05;9.80;99.90
9215;DHT22;4642;51.364;6.788;2023-04-24T02:57:31;9.80;99.90
9215;DHT22;4642;51.364;6.788;2023-04-24T02:59:56;9.80;99.90
9215;DHT22;4642;51.364;6.788;2023-04-24T03:02:22;9.80;99.90
9215;DHT22;4642;51.364;6.788;2023-04-24T03:04:47;9.80;99.90
9215;DHT22;4642;51.364;6.788;2023-04-24T03:07:13;9.80;99.90
9215;DHT22;4642;51.364;6.788;2023-04-24T03:09:40;9.80;99.90
9215;DHT22;4642;51.364;6.788;2023-04-24T03:12:05;9.80;99.90
9215;DHT22;4642;51.364;6.788;2023-04-24T03:14:31;9.80;99.90
9215;DHT22;4642;51.364;6.788;2023-04-24T03:16:57;9.80;99.90
9215;DHT22;4642;51.364;6.788;2023-04-24T03:19:22;9.80;99.90
9215;DHT22;4642;51.364;6.788;2023-04-24T03:21:48;9.80;99.90
9215;DHT22;4642;51.364;6.788;2023-04-24T03:24:14;9.80;99.90
9215;DHT22;4642;51.364;6.788;2023-04-24T03:26:39;9.80;99.90
9215;DHT22;4642;51.364;6.788;2023-04-24T03:29:05;9.90;99.90
9215;DHT22;4642;51.364;6.788;2023-04-24T03:31:30;9.90;99.90
9215;DHT22;4642;51.364;6.788;2023-04-24T03:33:56;9.90;99.90
9215;DHT22;4642;51.364;6.788;2023-04-24T03:36:21;9.90;99.90
9215;DHT22;4642;51.364;6.788;2023-04-24T03:38:47;9.90;99.90
9215;DHT22;4642;51.364;6.788;2023-04-24T03:41:12;9.90;99.90
9215;DHT22;4642;51.364;6.788;2023-04-24T03:43:38;9.90;99.90
9215;DHT22;4642;51.364;6.788;2023-04-24T03:46:04;9.80;99.90
9215;DHT22;4642;51.364;6.788;2023-04-24T03:48:30;9.90;99.90
9215;DHT22;4642;51.364;6.788;2023-04-24T03:50:55;9.90;99.90
9215;DHT22;4642;51.364;6.788;2023-04-24T03:53:21;9.90;99.90
9215;DHT22;4642;51.364;6.788;2023-04-24T03:55:47;9.90;99.90
9215;DHT22;4642;51.364;6.788;2023-04-24T03:58:12;9.90;99.90
9215;DHT22;4642;51.364;6.788;2023-04-24T04:00:39;9.90;99.90
9215;DHT22;4642;51.364;6.788;2023-04-24T04:03:05;9.90;99.90
9215;DHT22;4642;51.364;6.788;2023-04-24T04:05:31;9.90;99.90
9215;DHT22;4642;51.364;6.788;2023-04-24T04:07:57;9.90;99.90
9215;DHT22;4642;51.364;6.788;2023-04-24T04:10:22;9.90;99.90
9215;DHT22;4642;51.364;6.788;2023-04-24T04:12:48;9.90;99.90
9215;DHT22;4642;51.364;6.788;2023-04-24T04:15:13;9.90;99.90
9215;DHT22;4642;51.364;6.788;2023-04-24T04:17:39;9.90;99.90
9215;DHT22;4642;51.364;6.788;2023-04-24T04:20:05;9.90;99.90
9215;DHT22;4642;51.364;6.788;2023-04-24T04:22:37;9.90;99.90
9215;DHT22;4642;51.364;6.788;2023-04-24T04:25:03;9.90;99.90
9215;DHT22;4642;51.364;6.788;2023-04-24T04:27:30;9.90;99.90
9215;DHT22;4642;51.364;6.788;2023-04-24T04:29:58;9.90;99.90
9215;DHT22;4642;51.364;6.788;2023-04-24T04:32:24;9.90;99.90
9215;DHT22;4642;51.364;6.788;2023-04-24T04:34:50;9.90;99.90
9215;DHT22;4642;51.364;6.788;2023-04-24T04:37:18;9.90;99.90
9215;DHT22;4642;51.364;6.788;2023-04-24T04:39:44;9.90;99.90
9215;DHT22;4642;51.364;6.788;2023-04-24T04:42:09;9.90;99.90
9215;DHT22;4642;51.364;6.788;2023-04-24T04:44:35;9.90;99.90
9215;DHT22;4642;51.364;6.788;2023-04-24T04:47:01;9.90;99.90
9215;DHT22;4642;51.364;6.788;2023-04-24T04:49:31;9.90;99.90
9215;DHT22;4642;51.364;6.788;2023-04-24T04:51:57;9.90;99.90
9215;DHT22;4642;51.364;6.788;2023-04-24T04:54:22;9.80;99.90
9215;DHT22;4642;51.364;6.788;2023-04-24T04:56:50;9.90;99.90
9215;DHT22;4642;51.364;6.788;2023-04-24T04:59:16;9.80;99.90
9215;DHT22;4642;51.364;6.788;2023-04-24T05:01:41;9.80;99.90
9215;DHT22;4642;51.364;6.788;2023-04-24T05:04:07;9.90;99.90
9215;DHT22;4642;51.364;6.788;2023-04-24T05:06:32;9.80;99.90
9215;DHT22;4642;51.364;6.788;2023-04-24T05:08:58;9.80;99.90
9215;DHT22;4642;51.364;6.788;2023-04-24T05:11:23;9.80;99.90
9215;DHT22;4642;51.364;6.788;2023-04-24T05:13:49;9.80;99.90
9215;DHT22;4642;51.364;6.788;2023-04-24T05:16:14;9.80;99.90
9215;DHT22;4642;51.364;6.788;2023-04-24T05:18:40;9.80;99.90
9215;DHT22;4642;51.364;6.788;2023-04-24T05:21:06;9.70;99.90
9215;DHT22;4642;51.364;6.788;2023-04-24T05:23:31;9.70;99.90
9215;DHT22;4642;51.364;6.788;2023-04-24T05:25:57;9.70;99.90
9215;DHT22;4642;51.364;6.788;2023-04-24T05:28:22;9.60;99.90
9215;DHT22;4642;51.364;6.788;2023-04-24T05:30:48;9.60;99.90
9215;DHT22;4642;51.364;6.788;2023-04-24T05:33:13;9.60;99.90
9215;DHT22;4642;51.364;6.788;2023-04-24T05:35:40;9.50;99.90
9215;DHT22;4642;51.364;6.788;2023-04-24T05:38:11;9.50;99.90
9215;DHT22;4642;51.364;6.788;2023-04-24T05:40:37;9.50;99.90
9215;DHT22;4642;51.364;6.788;2023-04-24T05:43:02;9.50;99.90
9215;DHT22;4642;51.364;6.788;2023-04-24T05:45:28;9.50;99.90
9215;DHT22;4642;51.364;6.788;2023-04-24T05:47:54;9.40;99.90
9215;DHT22;4642;51.364;6.788;2023-04-24T05:50:20;9.50;99.90
9215;DHT22;4642;51.364;6.788;2023-04-24T05:52:45;9.50;99.90
9215;DHT22;4642;51.364;6.788;2023-04-24T05:55:11;9.50;99.90
9215;DHT22;4642;51.364;6.788;2023-04-24T05:57:36;9.50;99.90
9215;DHT22;4642;51.364;6.788;2023-04-24T06:00:03;9.50;99.90
9215;DHT22;4642;51.364;6.788;2023-04-24T06:02:30;9.50;99.90
9215;DHT22;4642;51.364;6.788;2023-04-24T06:04:58;9.50;99.90
9215;DHT22;4642;51.364;6.788;2023-04-24T06:07:25;9.50;99.90
9215;DHT22;4642;51.364;6.788;2023-04-24T06:09:51;9.50;99.90
9215;DHT22;4642;51.364;6.788;2023-04-24T06:12:17;9.40;99.90
9215;DHT22;4642;51.364;6.788;2023-04-24T06:14:43;9.50;99.90
9215;DHT22;4642;51.364;6.788;2023-04-24T06:17:08;9.60;99.90
9215;DHT22;4642;51.364;6.788;2023-04-24T06:19:34;9.50;99.90
9215;DHT22;4642;51.364;6.788;2023-04-24T06:21:59;9.50;99.90
9215;DHT22;4642;51.364;6.788;2023-04-24T06:24:28;9.50;99.90
9215;DHT22;4642;51.364;6.788;2023-04-24T06:26:54;9.50;99.90
9215;DHT22;4642;51.364;6.788;2023-04-24T06:29:20;9.50;99.90
9215;DHT22;4642;51.364;6.788;2023-04-24T06:31:45;9.50;99.90
9215;DHT22;4642;51.364;6.788;2023-04-24T06:34:11;9.50;99.90
9215;DHT22;4642;51.364;6.788;2023-04-24T06:36:36;9.40;99.90
9215;DHT22;4642;51.364;6.788;2023-04-24T06:39:02;9.40;99.90
9215;DHT22;4642;51.364;6.788;2023-04-24T06:41:28;9.40;99.90
9215;DHT22;4642;51.364;6.788;2023-04-24T06:43:54;9.40;99.90
9215;DHT22;4642;51.364;6.788;2023-04-24T06:46:20;9.40;99.90
9215;DHT22;4642;51.364;6.788;2023-04-24T06:48:49;9.40;99.90
9215;DHT22;4642;51.364;6.788;2023-04-24T06:51:14;9.30;99.90
9215;DHT22;4642;51.364;6.788;2023-04-24T06:53:40;9.30;99.90
9215;DHT22;4642;51.364;6.788;2023-04-24T06:56:06;9.30;99.90
9215;DHT22;4642;51.364;6.788;2023-04-24T06:58:31;9.20;99.90
9215;DHT22;4642;51.364;6.788;2023-04-24T07:00:57;9.20;99.90
9215;DHT22;4642;51.364;6.788;2023-04-24T07:03:23;9.20;99.90
9215;DHT22;4642;51.364;6.788;2023-04-24T07:05:48;9.30;99.90
9215;DHT22;4642;51.364;6.788;2023-04-24T07:08:14;9.30;99.90
9215;DHT22;4642;51.364;6.788;2023-04-24T07:10:42;9.20;99.90
9215;DHT22;4642;51.364;6.788;2023-04-24T07:13:07;9.20;99.90
9215;DHT22;4642;51.364;6.788;2023-04-24T07:15:33;9.30;99.90
9215;DHT22;4642;51.364;6.788;2023-04-24T07:17:59;9.20;99.90
9215;DHT22;4642;51.364;6.788;2023-04-24T07:20:25;9.20;99.90
9215;DHT22;4642;51.364;6.788;2023-04-24T07:22:51;9.20;99.90
9215;DHT22;4642;51.364;6.788;2023-04-24T07:25:17;9.10;99.90
9215;DHT22;4642;51.364;6.788;2023-04-24T07:27:42;9.10;99.90
9215;DHT22;4642;51.364;6.788;2023-04-24T07:30:08;9.00;99.90
9215;DHT22;4642;51.364;6.788;2023-04-24T07:32:34;9.00;99.90
9215;DHT22;4642;51.364;6.788;2023-04-24T07:35:00;8.90;99.90
9215;DHT22;4642;51.364;6.788;2023-04-24T07:37:26;8.90;99.90
9215;DHT22;4642;51.364;6.788;2023-04-24T07:39:51;8.80;99.90
9215;DHT22;4642;51.364;6.788;2023-04-24T07:42:17;8.80;99.90
9215;DHT22;4642;51.364;6.788;2023-04-24T07:44:42;8.60;99.90
9215;DHT22;4642;51.364;6.788;2023-04-24T07:47:08;8.60;99.90
9215;DHT22;4642;51.364;6.788;2023-04-24T07:49:33;8.60;99.90
9215;DHT22;4642;51.364;6.788;2023-04-24T07:52:00;8.50;99.90
9215;DHT22;4642;51.364;6.788;2023-04-24T07:54:27;8.50;99.90
9215;DHT22;4642;51.364;6.788;2023-04-24T07:56:53;8.50;99.90
9215;DHT22;4642;51.364;6.788;2023-04-24T07:59:19;8.50;99.90
9215;DHT22;4642;51.364;6.788;2023-04-24T08:01:45;8.40;99.90
9215;DHT22;4642;51.364;6.788;2023-04-24T08:04:10;8.30;99.90
9215;DHT22;4642;51.364;6.788;2023-04-24T08:06:36;8.40;99.90
9215;DHT22;4642;51.364;6.788;2023-04-24T08:09:02;8.40;99.90
9215;DHT22;4642;51.364;6.788;2023-04-24T08:11:28;8.40;99.90
9215;DHT22;4642;51.364;6.788;2023-04-24T08:13:53;8.40;99.90
9215;DHT22;4642;51.364;6.788;2023-04-24T08:16:20;8.40;99.90
9215;DHT22;4642;51.364;6.788;2023-04-24T08:18:45;8.40;99.90
9215;DHT22;4642;51.364;6.788;2023-04-24T08:21:11;8.40;99.90
9215;DHT22;4642;51.364;6.788;2023-04-24T08:23:38;8.50;99.90
9215;DHT22;4642;51.364;6.788;2023-04-24T08:26:03;8.50;99.90
9215;DHT22;4642;51.364;6.788;2023-04-24T08:28:29;8.40;99.90
9215;DHT22;4642;51.364;6.788;2023-04-24T08:30:55;8.40;99.90
9215;DHT22;4642;51.364;6.788;2023-04-24T08:33:22;8.50;99.90
9215;DHT22;4642;51.364;6.788;2023-04-24T08:35:48;8.50;99.90
9215;DHT22;4642;51.364;6.788;2023-04-24T08:38:13;8.50;99.90
9215;DHT22;4642;51.364;6.788;2023-04-24T08:40:39;8.50;99.90
9215;DHT22;4642;51.364;6.788;2023-04-24T08:43:05;8.60;99.90
9215;DHT22;4642;51.364;6.788;2023-04-24T08:45:32;8.60;99.90
9215;DHT22;4642;51.364;6.788;2023-04-24T08:47:58;8.70;99.90
9215;DHT22;4642;51.364;6.788;2023-04-24T08:50:25;8.60;99.90
9215;DHT22;4642;51.364;6.788;2023-04-24T08:52:52;8.70;99.90
9215;DHT22;4642;51.364;6.788;2023-04-24T08:55:19;8.60;99.90
9215;DHT22;4642;51.364;6.788;2023-04-24T08:57:50;8.70;99.90
9215;DHT22;4642;51.364;6.788;2023-04-24T09:00:17;8.70;99.90
9215;DHT22;4642;51.364;6.788;2023-04-24T09:02:43;8.80;99.90
9215;DHT22;4642;51.364;6.788;2023-04-24T09:05:10;8.70;99.90
9215;DHT22;4642;51.364;6.788;2023-04-24T09:07:39;8.70;99.90
9215;DHT22;4642;51.364;6.788;2023-04-24T09:10:07;8.70;99.90
9215;DHT22;4642;51.364;6.788;2023-04-24T09:12:34;8.70;99.90
9215;DHT22;4642;51.364;6.788;2023-04-24T09:15:00;8.80;99.90
9215;DHT22;4642;51.364;6.788;2023-04-24T09:17:27;8.80;99.90
9215;DHT22;4642;51.364;6.788;2023-04-24T09:19:53;8.80;99.90
9215;DHT22;4642;51.364;6.788;2023-04-24T09:22:20;8.80;99.90
9215;DHT22;4642;51.364;6.788;2023-04-24T09:24:45;8.80;99.90
9215;DHT22;4642;51.364;6.788;2023-04-24T09:27:11;8.80;99.90
9215;DHT22;4642;51.364;6.788;2023-04-24T09:29:38;8.80;99.90
9215;DHT22;4642;51.364;6.788;2023-04-24T09:32:20;8.80;99.90
9215;DHT22;4642;51.364;6.788;2023-04-24T09:34:47;8.80;99.90
9215;DHT22;4642;51.364;6.788;2023-04-24T09:37:27;8.80;99.90
9215;DHT22;4642;51.364;6.788;2023-04-24T09:42:35;8.70;99.90
9215;DHT22;4642;51.364;6.788;2023-04-24T09:45:01;8.70;99.90
9215;DHT22;4642;51.364;6.788;2023-04-24T09:47:27;8.60;99.90
9215;DHT22;4642;51.364;6.788;2023-04-24T09:49:57;8.70;99.90
9215;DHT22;4642;51.364;6.788;2023-04-24T09:52:23;8.60;99.90
9215;DHT22;4642;51.364;6.788;2023-04-24T09:54:53;8.60;99.90
9215;DHT22;4642;51.364;6.788;2023-04-24T09:57:19;8.60;99.90
9215;DHT22;4642;51.364;6.788;2023-04-24T09:59:46;8.60;99.90
9215;DHT22;4642;51.364;6.788;2023-04-24T10:02:19;8.60;99.90
9215;DHT22;4642;51.364;6.788;2023-04-24T10:04:55;8.70;99.90
9215;DHT22;4642;51.364;6.788;2023-04-24T10:07:21;8.70;99.90
9215;DHT22;4642;51.364;6.788;2023-04-24T10:09:47;8.70;99.90
9215;DHT22;4642;51.364;6.788;2023-04-24T10:12:13;8.80;99.90
9215;DHT22;4642;51.364;6.788;2023-04-24T10:14:40;8.80;99.90
9215;DHT22;4642;51.364;6.788;2023-04-24T10:17:06;8.90;99.90
9215;DHT22;4642;51.364;6.788;2023-04-24T10:19:32;8.90;99.90
9215;DHT22;4642;51.364;6.788;2023-04-24T10:21:59;8.90;99.90
9215;DHT22;4642;51.364;6.788;2023-04-24T10:24:25;8.90;99.90
9215;DHT22;4642;51.364;6.788;2023-04-24T10:26:52;8.90;99.90
9215;DHT22;4642;51.364;6.788;2023-04-24T10:29:19;9.00;99.90
9215;DHT22;4642;51.364;6.788;2023-04-24T10:31:45;9.00;99.90
9215;DHT22;4642;51.364;6.788;2023-04-24T10:34:11;9.00;99.90
9215;DHT22;4642;51.364;6.788;2023-04-24T10:36:42;9.00;99.90
9215;DHT22;4642;51.364;6.788;2023-04-24T10:39:11;9.00;99.90
9215;DHT22;4642;51.364;6.788;2023-04-24T10:41:38;9.00;99.90
9215;DHT22;4642;51.364;6.788;2023-04-24T10:44:07;9.00;99.90
9215;DHT22;4642;51.364;6.788;2023-04-24T10:46:34;9.10;99.90
9215;DHT22;4642;51.364;6.788;2023-04-24T10:49:04;9.10;99.90
9215;DHT22;4642;51.364;6.788;2023-04-24T10:51:50;9.20;99.90
9215;DHT22;4642;51.364;6.788;2023-04-24T10:54:35;9.10;99.90
9215;DHT22;4642;51.364;6.788;2023-04-24T11:00:15;9.10;99.90
9215;DHT22;4642;51.364;6.788;2023-04-24T11:02:41;9.10;99.90
9215;DHT22;4642;51.364;6.788;2023-04-24T11:05:18;9.20;99.90
9215;DHT22;4642;51.364;6.788;2023-04-24T11:08:15;9.30;99.90
9215;DHT22;4642;51.364;6.788;2023-04-24T11:10:46;9.30;99.90
9215;DHT22;4642;51.364;6.788;2023-04-24T11:13:21;9.40;99.90
9215;DHT22;4642;51.364;6.788;2023-04-24T11:18:39;9.40;99.90
9215;DHT22;4642;51.364;6.788;2023-04-24T11:21:17;9.40;99.90
9215;DHT22;4642;51.364;6.788;2023-04-24T11:23:43;9.30;99.90
9215;DHT22;4642;51.364;6.788;2023-04-24T11:26:16;9.40;99.90
9215;DHT22;4642;51.364;6.788;2023-04-24T11:28:49;9.40;99.90
9215;DHT22;4642;51.364;6.788;2023-04-24T11:31:34;9.40;99.90
9215;DHT22;4642;51.364;6.788;2023-04-24T11:34:12;9.40;99.90
9215;DHT22;4642;51.364;6.788;2023-04-24T11:36:43;9.50;99.90
9215;DHT22;4642;51.364;6.788;2023-04-24T11:39:08;9.50;99.90
9215;DHT22;4642;51.364;6.788;2023-04-24T11:41:35;9.60;99.90
9215;DHT22;4642;51.364;6.788;2023-04-24T11:44:03;9.60;99.90
9215;DHT22;4642;51.364;6.788;2023-04-24T11:46:30;9.70;99.90
9215;DHT22;4642;51.364;6.788;2023-04-24T11:48:56;9.80;99.90
9215;DHT22;4642;51.364;6.788;2023-04-24T11:51:23;10.00;99.90
9215;DHT22;4642;51.364;6.788;2023-04-24T11:53:51;10.10;99.90
9215;DHT22;4642;51.364;6.788;2023-04-24T11:56:25;10.10;99.90
9215;DHT22;4642;51.364;6.788;2023-04-24T11:58:54;10.10;99.90
9215;DHT22;4642;51.364;6.788;2023-04-24T12:01:20;10.10;99.90
9215;DHT22;4642;51.364;6.788;2023-04-24T12:03:50;10.10;99.90
9215;DHT22;4642;51.364;6.788;2023-04-24T12:06:16;10.10;99.90
9215;DHT22;4642;51.364;6.788;2023-04-24T12:08:46;10.10;99.90
9215;DHT22;4642;51.364;6.788;2023-04-24T12:11:15;10.10;99.90
9215;DHT22;4642;51.364;6.788;2023-04-24T12:13:41;10.10;99.90
9215;DHT22;4642;51.364;6.788;2023-04-24T12:16:06;10.10;99.90
9215;DHT22;4642;51.364;6.788;2023-04-24T12:18:32;10.00;99.90
9215;DHT22;4642;51.364;6.788;2023-04-24T12:23:43;10.00;99.90
9215;DHT22;4642;51.364;6.788;2023-04-24T12:26:11;9.90;99.90
9215;DHT22;4642;51.364;6.788;2023-04-24T12:28:38;9.90;99.90
9215;DHT22;4642;51.364;6.788;2023-04-24T12:31:03;9.90;99.90
9215;DHT22;4642;51.364;6.788;2023-04-24T12:33:33;10.00;99.90
9215;DHT22;4642;51.364;6.788;2023-04-24T12:36:00;10.00;99.90
9215;DHT22;4642;51.364;6.788;2023-04-24T12:38:27;10.10;99.90
9215;DHT22;4642;51.364;6.788;2023-04-24T12:41:16;10.20;99.90
9215;DHT22;4642;51.364;6.788;2023-04-24T12:43:54;10.20;99.90
9215;DHT22;4642;51.364;6.788;2023-04-24T12:46:20;10.30;99.90
9215;DHT22;4642;51.364;6.788;2023-04-24T12:48:46;10.30;99.90
9215;DHT22;4642;51.364;6.788;2023-04-24T12:51:11;10.30;99.90
9215;DHT22;4642;51.364;6.788;2023-04-24T12:53:37;10.20;99.90
9215;DHT22;4642;51.364;6.788;2023-04-24T12:56:02;10.20;99.90
9215;DHT22;4642;51.364;6.788;2023-04-24T12:58:28;10.20;99.90
9215;DHT22;4642;51.364;6.788;2023-04-24T13:00:54;10.10;99.90
9215;DHT22;4642;51.364;6.788;2023-04-24T13:03:19;10.10;99.90
9215;DHT22;4642;51.364;6.788;2023-04-24T13:05:45;10.10;99.90
9215;DHT22;4642;51.364;6.788;2023-04-24T13:08:11;10.10;99.90
9215;DHT22;4642;51.364;6.788;2023-04-24T13:10:38;10.10;99.90
9215;DHT22;4642;51.364;6.788;2023-04-24T13:13:03;10.10;99.90
9215;DHT22;4642;51.364;6.788;2023-04-24T13:15:29;10.10;99.90
9215;DHT22;4642;51.364;6.788;2023-04-24T13:17:54;10.10;99.90
9215;DHT22;4642;51.364;6.788;2023-04-24T13:20:20;10.10;99.90
9215;DHT22;4642;51.364;6.788;2023-04-24T13:22:46;10.10;99.90
9215;DHT22;4642;51.364;6.788;2023-04-24T13:25:11;10.10;99.90
9215;DHT22;4642;51.364;6.788;2023-04-24T13:27:40;10.20;99.90
9215;DHT22;4642;51.364;6.788;2023-04-24T13:30:06;10.20;99.90
9215;DHT22;4642;51.364;6.788;2023-04-24T13:32:32;10.20;99.90
9215;DHT22;4642;51.364;6.788;2023-04-24T13:34:58;10.30;99.90
9215;DHT22;4642;51.364;6.788;2023-04-24T13:37:24;10.30;99.90
9215;DHT22;4642;51.364;6.788;2023-04-24T13:39:49;10.40;99.90
9215;DHT22;4642;51.364;6.788;2023-04-24T13:42:16;10.50;99.90
9215;DHT22;4642;51.364;6.788;2023-04-24T13:44:41;10.60;99.90
9215;DHT22;4642;51.364;6.788;2023-04-24T13:47:07;10.70;99.90
9215;DHT22;4642;51.364;6.788;2023-04-24T13:49:32;10.70;99.90
9215;DHT22;4642;51.364;6.788;2023-04-24T13:51:58;10.70;99.90
9215;DHT22;4642;51.364;6.788;2023-04-24T13:54:23;10.70;99.90
9215;DHT22;4642;51.364;6.788;2023-04-24T13:56:51;10.70;99.90
9215;DHT22;4642;51.364;6.788;2023-04-24T13:59:17;10.70;99.90
9215;DHT22;4642;51.364;6.788;2023-04-24T14:01:42;10.80;99.90
9215;DHT22;4642;51.364;6.788;2023-04-24T14:04:10;10.80;99.90
9215;DHT22;4642;51.364;6.788;2023-04-24T14:06:35;10.90;99.90
9215;DHT22;4642;51.364;6.788;2023-04-24T14:09:01;11.00;99.90
9215;DHT22;4642;51.364;6.788;2023-04-24T14:11:26;11.00;99.90
9215;DHT22;4642;51.364;6.788;2023-04-24T14:13:54;11.10;99.90
9215;DHT22;4642;51.364;6.788;2023-04-24T14:16:20;11.10;99.90
9215;DHT22;4642;51.364;6.788;2023-04-24T14:18:46;11.20;99.90
9215;DHT22;4642;51.364;6.788;2023-04-24T14:21:11;11.20;99.90
9215;DHT22;4642;51.364;6.788;2023-04-24T14:23:37;11.30;99.90
9215;DHT22;4642;51.364;6.788;2023-04-24T14:26:02;11.30;99.90
9215;DHT22;4642;51.364;6.788;2023-04-24T14:28:28;11.30;99.90
9215;DHT22;4642;51.364;6.788;2023-04-24T14:30:53;11.30;99.90
9215;DHT22;4642;51.364;6.788;2023-04-24T14:33:19;11.30;99.90
9215;DHT22;4642;51.364;6.788;2023-04-24T14:35:46;11.20;99.90
9215;DHT22;4642;51.364;6.788;2023-04-24T14:38:11;11.20;99.90
9215;DHT22;4642;51.364;6.788;2023-04-24T14:40:37;11.10;99.90
9215;DHT22;4642;51.364;6.788;2023-04-24T14:43:03;11.10;99.90
9215;DHT22;4642;51.364;6.788;2023-04-24T14:45:29;11.00;99.90
9215;DHT22;4642;51.364;6.788;2023-04-24T14:47:55;11.00;99.90
9215;DHT22;4642;51.364;6.788;2023-04-24T14:50:21;10.90;99.90
9215;DHT22;4642;51.364;6.788;2023-04-24T14:52:47;10.90;99.90
9215;DHT22;4642;51.364;6.788;2023-04-24T14:55:12;10.90;99.90
9215;DHT22;4642;51.364;6.788;2023-04-24T14:57:38;10.90;99.90
9215;DHT22;4642;51.364;6.788;2023-04-24T15:00:05;10.90;99.90
9215;DHT22;4642;51.364;6.788;2023-04-24T15:02:33;10.90;99.90
9215;DHT22;4642;51.364;6.788;2023-04-24T15:04:59;10.90;99.90
9215;DHT22;4642;51.364;6.788;2023-04-24T15:07:24;10.90;99.90
9215;DHT22;4642;51.364;6.788;2023-04-24T15:09:50;10.90;99.90
9215;DHT22;4642;51.364;6.788;2023-04-24T15:12:16;11.00;99.90
9215;DHT22;4642;51.364;6.788;2023-04-24T15:14:42;11.10;99.90
9215;DHT22;4642;51.364;6.788;2023-04-24T15:17:07;11.10;99.90
9215;DHT22;4642;51.364;6.788;2023-04-24T15:19:33;11.10;99.90
9215;DHT22;4642;51.364;6.788;2023-04-24T15:21:58;11.10;99.90
9215;DHT22;4642;51.364;6.788;2023-04-24T15:24:24;11.20;99.90
9215;DHT22;4642;51.364;6.788;2023-04-24T15:26:50;11.10;99.90
9215;DHT22;4642;51.364;6.788;2023-04-24T15:29:15;11.10;99.90
9215;DHT22;4642;51.364;6.788;2023-04-24T15:31:41;11.20;99.90
9215;DHT22;4642;51.364;6.788;2023-04-24T15:34:06;11.30;99.90
9215;DHT22;4642;51.364;6.788;2023-04-24T15:36:32;11.30;99.90
9215;DHT22;4642;51.364;6.788;2023-04-24T15:38:58;11.40;99.90
9215;DHT22;4642;51.364;6.788;2023-04-24T15:41:23;11.40;99.90
9215;DHT22;4642;51.364;6.788;2023-04-24T15:43:49;11.40;99.90
9215;DHT22;4642;51.364;6.788;2023-04-24T15:46:15;11.40;99.90
9215;DHT22;4642;51.364;6.788;2023-04-24T15:48:44;11.60;99.90
9215;DHT22;4642;51.364;6.788;2023-04-24T15:51:09;11.60;99.90
9215;DHT22;4642;51.364;6.788;2023-04-24T15:53:35;11.50;99.90
9215;DHT22;4642;51.364;6.788;2023-04-24T15:56:00;11.40;99.90
9215;DHT22;4642;51.364;6.788;2023-04-24T15:58:26;11.50;99.90
9215;DHT22;4642;51.364;6.788;2023-04-24T16:00:52;11.80;99.90
9215;DHT22;4642;51.364;6.788;2023-04-24T16:03:19;11.70;99.90
9215;DHT22;4642;51.364;6.788;2023-04-24T16:05:44;11.50;99.90
9215;DHT22;4642;51.364;6.788;2023-04-24T16:08:10;11.60;99.90
9215;DHT22;4642;51.364;6.788;2023-04-24T16:10:36;11.40;99.90
9215;DHT22;4642;51.364;6.788;2023-04-24T16:13:01;11.40;99.90
9215;DHT22;4642;51.364;6.788;2023-04-24T16:15:29;11.60;99.90
9215;DHT22;4642;51.364;6.788;2023-04-24T16:17:55;11.90;99.90
9215;DHT22;4642;51.364;6.788;2023-04-24T16:20:21;12.20;99.90